モスクワ/シェレメーチエヴォ の空港の天気 - METARとTAF

シェレメーチエヴォ国際空港(モスクワ) ( UUEE / SVO ) - ロシア モスクワ
飛行場実況気象(Metar)
観測時間10/16 10:30 MSK (10/16 07:30 UTC)
風向・風速南南東 4m/s 瞬間風速9m/s
視程10km以上
天気現象
なし
気温5℃
湿度70%
気圧1027hPa
METARUUEE 160730Z 15004G09MPS 110V170 CAVOK 05/M00 Q1027 R06R/CLRD62 R06L/CLRD62 NOSIG
過去の天気等 Google飛行場航空写真 Wunderground天気予報

過去48時間のMETAR

飛行場予報(TAF)
発表時間: 10/16 07:57 MSK (10/16 04:57 UTC)
予報対象時間: 16日9時 MSK ~ 17日9時 MSK
風向・風速南南東 6m/s
視程10km以上
全天の4割程度の雲 雲底高度 610m
16日12時 MSK ~ 17日7時 MSK に一時的に
風向・風速南 8m/s 瞬間風速 14m/s
17日7時 MSK ~ 17日9時 MSK に徐々に
風向・風速南西 5m/s
TAF UUEE 160457Z 1606/1706 16006MPS 9999 SCT020 TX07/1612Z TN03/1606Z
TEMPO 1609/1704 19008G14MPS
BECMG 1704/1706 22005MPS